Terminal Aerodrome Forecast
Issued by NWS Twin Cities, MN

Home | Current Version | Previous Version | Graphics & Text | Print | Product List | Glossary On
Versions: 1 2 3 4 5 6 7 8 9 10 11 12 13 14 15 16 17 18 19 20 21 22 23 24
000
FTUS43 KMPX 212108 AAA
TAFMSP
TAF AMD
KMSP 212108Z 2121/2224 02007KT P6SM OVC070
     FM221000 03013KT P6SM SCT020 OVC035
     FM221400 02016G25KT 3SM -SN BR OVC020
     FM221600 02018G26KT 2SM -SN BR OVC015
     FM221900 02019G27KT 3/4SM -SN BR VV010=

USA.gov is the U.S. government's official web portal to all federal, state and local government web resources and services.